Latest Weather Observations for Karratha

IDW60801

Issued at 9:23 pm WST Monday 27 January 2020 (issued every 10 minutes, with the page automatically refreshed every 10 minutes)

About weather observations | Map of weather stations | Latest weather observations for WA | Other Formats
Station Details ID: 004083 Name: KARRATHA AERO Lat: -20.71 Lon: 116.77 Height: 5.3 m
Data from the previous 72 hours. | See also: Recent months at Karratha
Date/Time
WST
Temp
°C
App
Temp
°C
Dew
Point
°C
Rel
Hum
%
Delta-T
°C
Wind Press
QNH
hPa
Press
MSL
hPa
Rain since
9am
mm
Dir  Spd
km/h
Gust
km/h
Spd
kts
Gust
kts
27/09:00pm 31.0 33.0 25.1 71 4.2 W 24 30 13 16 1008.5 1008.4 0.0
27/08:30pm 31.3 33.3 25.2 70 4.3 W 24 30 13 16 1008.2 1008.1 0.0
27/08:00pm 31.1 33.9 25.2 71 4.2 WNW 20 24 11 13 1007.9 1007.8 0.0
27/07:30pm 31.1 33.6 25.4 71 4.0 WNW 22 30 12 16 1007.6 1007.5 0.0
27/07:00pm 31.3 34.3 26.1 74 3.7 WNW 22 28 12 15 1007.2 1007.1 0.0
27/06:30pm 31.7 34.4 26.3 73 3.9 WNW 24 28 13 15 1006.8 1006.7 0.0
27/06:00pm 33.0 35.7 26.3 68 4.8 WNW 24 30 13 16 1006.6 1006.5 0.0
27/05:30pm 33.7 35.4 24.0 57 6.8 WNW 22 30 12 16 1006.3 1006.2 0.0
27/05:00pm 34.2 35.6 23.6 54 7.4 WNW 22 28 12 15 1006.2 1006.1 0.0
27/04:30pm 34.0 35.4 24.8 58 6.5 WNW 26 32 14 17 1006.4 1006.3 0.0
27/04:00pm 34.7 36.5 24.9 56 7.0 WNW 24 30 13 16 1006.3 1006.2 0.0
27/03:30pm 35.1 36.2 23.1 49 8.3 NW 22 30 12 16 1006.4 1006.3 0.0
27/03:00pm 35.8 36.2 22.4 46 9.2 NW 24 30 13 16 1006.5 1006.4 0.0
27/02:30pm 36.1 36.8 22.3 45 9.5 NW 22 30 12 16 1006.7 1006.6 0.0
27/02:00pm 35.3 37.3 23.9 51 8.0 NNW 20 26 11 14 1006.8 1006.7 0.0
27/01:30pm 35.0 37.4 24.6 55 7.3 NNW 20 28 11 15 1007.2 1007.1 0.0
27/01:00pm 35.4 38.2 25.3 56 7.2 NW 20 28 11 15 1007.4 1007.3 0.0
27/12:30pm 35.5 37.8 26.2 58 6.7 WNW 26 33 14 18 1007.3 1007.2 0.0
27/12:00pm 35.6 38.2 25.5 56 7.2 NW 22 28 12 15 1007.8 1007.7 0.0
27/11:30am 36.1 38.2 23.7 49 8.7 WNW 19 24 10 13 1008.3 1008.2 0.0
27/11:00am 36.9 37.6 21.5 41 10.5 WNW 20 24 11 13 1008.3 1008.2 0.0
27/10:30am 36.3 37.6 20.9 40 10.4 WNW 15 20 8 11 1008.4 1008.3 0.0
27/10:00am 35.6 36.4 19.9 39 10.5 NW 15 20 8 11 1008.5 1008.4 0.0
27/09:30am 34.8 37.1 22.8 49 8.3 W 15 19 8 10 1008.6 1008.5 0.0
27/09:00am 35.6 35.6 15.3 29 12.7 NW 9 11 5 6 1008.7 1008.6 0.0
27/08:30am 34.3 35.4 17.1 36 11.0 NW 7 9 4 5 1008.6 1008.5 0.0
27/08:00am 33.0 36.3 21.5 50 7.8 WNW 6 9 3 5 1008.6 1008.5 0.0
27/07:30am 31.7 36.7 23.2 60 5.9 WNW 2 6 1 3 1008.3 1008.2 0.0
27/07:00am 30.6 34.5 22.5 62 5.5 NNW 6 7 3 4 1007.9 1007.8 0.0
27/06:30am 30.1 33.1 22.0 62 5.5 NNW 9 11 5 6 1007.7 1007.6 0.0
27/06:00am 29.1 31.7 20.5 59 5.7 N 7 9 4 5 1007.3 1007.2 0.0
27/05:30am 29.0 32.1 22.2 66 4.6 N 9 13 5 7 1007.1 1007.0 0.0
27/05:00am 28.5 32.3 22.7 71 3.9 NE 7 15 4 8 1007.0 1006.9 0.0
27/04:30am 28.8 29.9 22.3 68 4.4 NE 20 30 11 16 1006.9 1006.8 0.0
27/04:00am 29.2 31.4 21.2 62 5.3 WSW 11 13 6 7 1006.1 1006.0 0.0
27/03:30am 29.1 31.5 21.6 64 5.0 WSW 11 13 6 7 1006.1 1006.0 0.0
27/03:00am 29.0 32.0 22.0 66 4.7 WSW 9 11 5 6 1006.3 1006.2 0.0
27/02:30am 29.2 31.4 21.9 64 4.9 SW 13 15 7 8 1006.2 1006.1 0.0
27/02:00am 29.9 32.5 22.6 65 5.0 WSW 13 17 7 9 1006.5 1006.4 0.0
27/01:30am 29.9 32.9 23.3 67 4.5 WSW 13 17 7 9 1006.4 1006.3 0.0
27/01:00am 30.1 33.4 23.8 69 4.4 WSW 13 17 7 9 1006.7 1006.6 0.0
27/12:30am 29.8 32.6 23.7 70 4.2 SW 15 17 8 9 1007.0 1006.9 0.0
27/12:00am 29.7 33.2 24.8 75 3.4 SW 15 20 8 11 1007.2 1007.1 0.0
 
Date/Time
WST
Temp
°C
App
Temp
°C
Dew
Point
°C
Rel
Hum
%
Delta-T
°C
Wind Press
QNH
hPa
Press
MSL
hPa
Rain since
9am
mm
Dir  Spd
km/h
Gust
km/h
Spd
kts
Gust
kts
26/11:30pm 30.1 33.1 25.6 77 3.2 SW 20 24 11 13 1007.4 1007.3 0.0
26/11:00pm 30.2 32.0 25.5 76 3.3 WSW 26 32 14 17 1007.2 1007.1 0.0
26/10:30pm 30.4 31.3 25.2 74 3.7 WSW 30 37 16 20 1007.1 1007.0 0.0
26/10:00pm 30.4 31.5 25.5 75 3.5 WSW 30 37 16 20 1006.9 1006.8 0.0
26/09:30pm 30.7 31.1 25.3 73 3.8 W 33 39 18 21 1006.7 1006.6 0.0
26/09:00pm 30.7 30.7 25.3 73 3.8 W 35 41 19 22 1006.5 1006.4 0.0
26/08:30pm 31.1 31.2 25.4 71 4.0 W 35 41 19 22 1006.4 1006.3 0.0
26/08:00pm 31.3 31.0 24.9 69 4.5 W 35 41 19 22 1006.2 1006.1 0.0
26/07:30pm 31.8 32.3 25.2 68 4.7 W 32 35 17 19 1006.0 1005.9 0.0
26/07:00pm 32.1 32.6 25.2 67 4.9 W 32 37 17 20 1005.7 1005.6 0.0
26/06:30pm 32.9 35.8 25.9 66 5.0 WNW 22 30 12 16 1005.5 1005.4 0.0
26/06:00pm 33.8 36.0 26.0 63 5.6 WNW 26 32 14 17 1005.2 1005.1 0.0
26/05:30pm 34.8 35.4 24.1 53 7.5 WNW 28 35 15 19 1005.0 1004.9 0.0
26/05:00pm 36.0 37.8 25.5 54 7.5 WNW 26 32 14 17 1005.0 1004.9 0.0
26/04:30pm 38.0 39.1 22.4 40 10.8 NW 20 28 11 15 1004.9 1004.8 0.0
26/04:00pm 38.3 39.4 23.1 41 10.6 NNW 22 28 12 15 1004.9 1004.8 0.0
26/03:30pm 37.5 35.8 19.0 34 12.3 NW 26 30 14 16 1005.3 1005.2 0.0
26/03:00pm 36.3 37.5 23.9 49 8.7 NNW 24 30 13 16 1005.6 1005.5 0.0
26/02:30pm 36.7 38.1 24.2 48 8.8 NNW 24 30 13 16 1005.8 1005.7 0.0
26/02:00pm 36.4 38.5 25.3 53 7.9 NNW 24 30 13 16 1006.1 1006.0 0.0
26/01:30pm 37.2 38.3 23.6 45 9.5 N 24 30 13 16 1006.3 1006.2 0.0
26/01:00pm 37.0 38.3 23.4 45 9.5 NNW 22 28 12 15 1006.5 1006.4 0.0
26/12:30pm 37.8 39.9 23.8 44 9.9 NNW 19 26 10 14 1006.8 1006.7 0.0
26/12:00pm 38.0 40.9 24.4 46 9.7 NNW 17 20 9 11 1007.2 1007.1 0.0
26/11:30am 38.3 38.3 18.2 31 13.2 NNW 15 19 8 10 1007.6 1007.5 0.0
26/11:00am 36.4 37.6 20.6 39 10.7 NNW 15 19 8 10 1008.0 1007.9 0.0
26/10:30am 35.8 38.1 22.0 44 9.5 N 13 17 7 9 1008.3 1008.2 0.0
26/10:00am 34.3 38.2 23.6 53 7.5 NW 9 15 5 8 1008.6 1008.5 0.0
26/09:30am 33.6 37.1 24.2 58 6.6 WNW 13 17 7 9 1008.6 1008.5 0.0
26/09:00am 32.7 37.0 24.2 61 6.0 W 9 13 5 7 1008.9 1008.8 0.0
26/08:30am 31.6 35.8 24.7 67 4.8 WSW 11 15 6 8 1008.8 1008.7 0.0
26/08:00am 30.6 34.2 26.5 79 2.9 WSW 20 24 11 13 1008.0 1007.9 0.0
26/07:30am 30.1 33.8 26.3 80 2.7 W 19 20 10 11 1007.7 1007.6 0.0
26/07:00am 29.4 33.9 25.8 81 2.6 SW 13 15 7 8 1007.6 1007.5 0.0
26/06:30am 28.2 33.1 25.2 84 2.1 SW 9 13 5 7 1007.4 1007.3 0.0
26/06:00am 27.6 32.1 25.2 87 1.7 SW 11 13 6 7 1007.3 1007.2 0.0
26/05:30am 27.9 32.6 24.9 84 2.1 SW 9 9 5 5 1007.1 1007.0 0.0
26/05:00am 28.4 33.3 25.2 83 2.3 SW 9 13 5 7 1006.9 1006.8 0.0
26/04:30am 29.2 33.4 25.4 80 2.7 SW 13 15 7 8 1006.9 1006.8 0.0
26/04:00am 29.8 33.6 24.7 74 3.6 W 13 17 7 9 1006.8 1006.7 0.0
26/03:30am 30.0 33.3 23.2 67 4.7 WSW 11 15 6 8 1006.8 1006.7 0.0
26/03:00am 30.1 33.1 23.3 67 4.7 WSW 13 13 7 7 1006.9 1006.8 0.0
26/02:30am 30.1 32.3 23.3 67 4.7 WSW 17 20 9 11 1006.9 1006.8 0.0
26/02:00am 30.1 33.1 23.3 67 4.7 WSW 13 17 7 9 1007.2 1007.1 0.0
26/01:30am 29.9 33.3 25.2 76 3.3 SW 17 19 9 10 1007.3 1007.2 0.0
26/01:00am 30.0 34.0 26.2 80 2.7 SW 17 20 9 11 1007.4 1007.3 0.0
26/12:30am 30.1 33.6 26.3 80 2.7 WSW 20 24 11 13 1007.6 1007.5 0.0
26/12:00am 30.5 33.0 25.3 74 3.7 WSW 22 26 12 14 1008.0 1007.9 0.0
 
Date/Time
WST
Temp
°C
App
Temp
°C
Dew
Point
°C
Rel
Hum
%
Delta-T
°C
Wind Press
QNH
hPa
Press
MSL
hPa
Rain since
9am
mm
Dir  Spd
km/h
Gust
km/h
Spd
kts
Gust
kts
25/11:30pm 30.4 32.3 25.0 73 3.8 W 24 30 13 16 1007.9 1007.8 0.0
25/11:00pm 30.2 32.8 26.1 79 2.9 W 24 28 13 15 1007.7 1007.6 0.0
25/10:30pm 30.2 32.8 26.1 79 2.9 W 24 32 13 17 1007.6 1007.5 0.0
25/10:00pm 30.7 33.9 25.8 75 3.5 W 20 26 11 14 1007.6 1007.5 0.0
25/09:30pm 30.7 33.4 24.8 71 4.1 WNW 19 22 10 12 1007.1 1007.0 0.0
25/09:00pm 30.9 33.2 24.5 68 4.5 NW 20 26 11 14 1006.5 1006.4 0.0
25/08:30pm 30.6 32.9 25.0 72 3.9 NW 22 32 12 17 1006.1 1006.0 0.0
25/08:00pm 30.4 31.6 25.7 76 3.3 NW 30 39 16 21 1006.0 1005.9 0.0
25/07:30pm 30.6 31.8 25.7 75 3.5 WNW 30 41 16 22 1006.3 1006.2 0.0
25/07:00pm 31.6 32.5 25.2 69 4.5 W 30 37 16 20 1007.2 1007.1 0.0
25/06:30pm 31.4 32.5 25.0 69 4.5 WNW 28 33 15 18 1006.8 1006.7 0.0
25/06:00pm 32.4 35.6 25.5 67 4.9 WSW 19 26 10 14 1007.7 1007.6 0.0
25/05:30pm 31.7 34.1 24.6 66 5.0 WNW 20 30 11 16 1007.5 1007.4 0.0
25/05:00pm 32.8 34.9 25.3 64 5.3 WNW 24 32 13 17 1006.2 1006.1 0.0
25/04:30pm 33.3 34.4 25.0 61 5.9 WNW 28 37 15 20 1005.5 1005.4 0.0
25/04:00pm 34.0 34.9 24.6 58 6.6 NW 28 37 15 20 1005.7 1005.6 0.0
25/03:30pm 35.3 37.0 24.6 54 7.6 NW 24 32 13 17 1005.9 1005.8 0.0
25/03:00pm 35.2 36.2 24.2 53 7.8 WNW 26 33 14 18 1006.4 1006.3 0.0
25/02:30pm 35.0 36.1 24.3 54 7.5 WNW 26 33 14 18 1006.7 1006.6 0.0
25/02:00pm 34.6 35.5 23.9 53 7.5 WNW 26 32 14 17 1007.0 1006.9 0.0
25/01:30pm 34.5 35.6 24.4 55 7.1 NW 26 32 14 17 1007.3 1007.2 0.0
25/01:00pm 34.6 36.9 24.5 55 7.1 NW 20 28 11 15 1007.8 1007.7 0.0
25/12:30pm 34.6 36.9 24.5 55 7.1 NNW 20 26 11 14 1008.0 1007.9 0.0
25/12:00pm 34.8 37.6 25.0 56 7.0 NNW 19 26 10 14 1008.3 1008.2 0.0
25/11:30am 34.1 37.5 25.2 59 6.3 NNW 17 22 9 12 1008.8 1008.7 0.0
25/11:00am 33.8 37.2 25.2 60 6.1 NNW 17 22 9 12 1009.1 1009.0 0.0
25/10:30am 34.3 38.0 25.7 61 6.1 NNW 17 20 9 11 1009.4 1009.4 0.0
25/10:00am 34.1 37.5 24.1 56 7.0 N 13 15 7 8 1009.6 1009.6 0.0
25/09:30am 33.9 36.4 21.7 49 8.3 NNW 11 15 6 8 1009.6 1009.6 0.0
25/09:00am 32.7 36.8 23.9 60 6.1 N 9 13 5 7 1009.4 1009.4 0.0
25/08:30am 31.6 36.7 25.0 68 4.7 NNW 7 11 4 6 1009.4 1009.4 0.0
25/08:00am 30.3 35.4 25.6 76 3.3 NNW 9 13 5 7 1009.2 1009.1 0.0
25/07:30am 29.5 34.1 25.3 78 3.0 NNE 11 13 6 7 1009.0 1008.9 0.0
25/07:00am 28.9 34.2 25.3 81 2.5 SW 7 13 4 7 1008.5 1008.4 0.0
25/06:30am 29.0 32.5 25.4 81 2.5 SW 17 19 9 10 1007.8 1007.7 0.0
25/06:00am 28.9 33.3 25.7 83 2.3 SW 13 17 7 9 1007.6 1007.5 0.0
25/05:30am 29.1 33.3 25.9 83 2.3 SW 15 17 8 9 1007.4 1007.3 0.0
25/05:00am 29.3 33.4 25.7 81 2.6 WSW 15 19 8 10 1007.6 1007.5 0.0
25/04:30am 29.3 33.0 25.7 81 2.5 WSW 17 20 9 11 1007.5 1007.4 0.0
25/04:00am 29.3 32.5 25.5 80 2.7 W 19 20 10 11 1007.4 1007.3 0.0
25/03:30am 29.2 32.2 25.6 81 2.5 W 20 26 11 14 1007.5 1007.4 0.0
25/03:00am 29.2 32.1 26.0 83 2.3 WSW 22 26 12 14 1007.8 1007.7 0.0
25/02:30am 29.1 32.7 26.1 84 2.1 WSW 19 20 10 11 1007.9 1007.8 0.0
25/02:00am 29.3 32.7 26.1 83 2.3 WSW 20 26 11 14 1008.0 1007.9 0.0
25/01:30am 29.6 33.4 26.8 85 2.0 W 20 24 11 13 1008.1 1008.0 0.0
25/01:00am 29.7 33.6 26.9 85 2.0 W 20 26 11 14 1008.2 1008.1 0.0
25/12:30am 29.8 33.8 27.0 85 2.0 W 20 26 11 14 1008.3 1008.2 0.0
25/12:00am 30.1 34.1 26.7 82 2.4 W 19 22 10 12 1008.5 1008.4 0.0
 
Date/Time
WST
Temp
°C
App
Temp
°C
Dew
Point
°C
Rel
Hum
%
Delta-T
°C
Wind Press
QNH
hPa
Press
MSL
hPa
Rain since
9am
mm
Dir  Spd
km/h
Gust
km/h
Spd
kts
Gust
kts
24/11:30pm 30.4 34.1 25.2 74 3.7 WNW 15 20 8 11 1008.4 1008.3 0.0
24/11:00pm 30.9 34.2 23.8 66 4.9 NW 13 17 7 9 1008.3 1008.2 0.0
24/10:30pm 30.9 34.6 24.5 68 4.5 W 13 17 7 9 1008.5 1008.4 0.0
24/10:00pm 31.0 33.7 24.1 66 4.8 W 17 20 9 11 1008.7 1008.6 0.0
24/09:30pm 30.8 32.9 24.7 70 4.3 W 22 28 12 15 1008.4 1008.3 0.0

Other formats

Comma delimited format used in spreadsheet applications
http://www.bom.gov.au/fwo/IDW60801/IDW60801.95307.axf

JavaScript Object Notation format (JSON) in row-major order
http://www.bom.gov.au/fwo/IDW60801/IDW60801.95307.json

Data quality

Most of these data are generated automatically and are frequently updated. Quality checks on data are not normally performed. It is possible for incorrect values to appear. Refer to information at About Latest Weather Observations and please check the disclaimer before using these data.